Flight Track Log - Related Links

Times and Time Zones

All times are in EDT time to prevent confusion due to time zone crossing. See the SWA2167 flight status page for this flight to view local times or setup timezone preferences in your user account.

Time Position Orientation Groundspeed Altitude Reporting Facility
EDT Latitude Longitude Course Direction KTS MPH feet Rate Location/Type
Sat 09:07:16 PM 41.8333 -87.7500 90° East 207 238 2,900  Level Chicago TRACON
Sat 09:09:33 PM 41.8100 -87.5503 99° East 262 302 10,000 3,121 Climbing Chicago Center
Sat 09:10:34 PM 41.8017 -87.4514 96° East 267 307 13,200 2,361 Climbing Chicago Center
Sat 09:11:35 PM 41.8078 -87.3344 86° East 316 364 14,800 2,115 Climbing Chicago Center
Sat 09:12:00 PM 41.7500 -87.0095 90° East  Level FlightAware Approximate
Sat 09:12:36 PM 41.8178 -87.2017 84° East 352 405 17,500  Level Chicago Center
Sat 09:13:38 PM 41.8278 -87.0678 84° East 360 414 20,000 2,146 Climbing Chicago Center
Sat 09:14:39 PM 41.8392 -86.9264 84° East 378 435 21,900 1,869 Climbing Chicago Center
Sat 09:15:40 PM 41.8489 -86.7781 85° East 398 458 23,800 1,918 Climbing Chicago Center
Sat 09:16:41 PM 41.8597 -86.6222 85° East 409 471 25,800 1,707 Climbing Chicago Center
Sat 09:17:43 PM 41.8706 -86.4658 85° East 420 483 27,300 1,610 Climbing Chicago Center
Sat 09:18:44 PM 41.8833 -86.2728 85° East 432 497 29,100 1,721 Climbing Chicago Center
Sat 09:19:45 PM 41.8956 -86.1094 84° East 440 506 30,800 1,574 Climbing Chicago Center
Sat 09:20:46 PM 41.9061 -85.9478 85° East 435 501 32,300 1,426 Climbing Chicago Center
Sat 09:21:47 PM 41.9164 -85.7861 85° East 434 499 33,700 1,463 Climbing Chicago Center
Sat 09:22:49 PM 41.9267 -85.6258 85° East 428 493 35,300 1,463 Climbing Chicago Center
Sat 09:23:50 PM 41.9375 -85.4692 85° East 418 481 36,700 1,074 Climbing Chicago Center
Sat 09:24:24 PM 41.9456 -85.3717 84° East 419 482 37,000 191 Climbing Cleveland Center
Sat 09:25:24 PM 41.9539 -85.2158 86° East 419 482 37,000  Level Cleveland Center
Sat 09:26:24 PM 41.9539 -85.0594 90° East 419 482 37,000  Level Cleveland Center
Sat 09:27:24 PM 41.9536 -84.9058 90° East 419 482 37,000  Level Cleveland Center
Sat 09:28:24 PM 41.9528 -84.7550 90° East 419 482 37,000  Level Cleveland Center
Sat 09:29:24 PM 41.9500 -84.5983 91° East 419 482 37,000  Level Cleveland Center
Sat 09:30:24 PM 41.9492 -84.4419 90° East 419 482 37,000  Level Cleveland Center
Sat 09:31:24 PM 41.9481 -84.2883 91° East 419 482 37,000  Level Cleveland Center
Sat 09:32:24 PM 41.9419 -84.1511 93° East 419 482 37,000  Level Cleveland Center
Sat 09:33:24 PM 41.9403 -83.9975 91° East 414 476 37,000  Level Cleveland Center
Sat 09:34:24 PM 41.9367 -83.8408 92° East 409 471 37,000  Level Cleveland Center
Sat 09:35:24 PM 41.9347 -83.6872 91° East 409 471 37,000  Level Cleveland Center
Sat 09:36:24 PM 41.9350 -83.5169 90° East 416 479 37,000  Level Cleveland Center
Sat 09:37:24 PM 41.9533 -83.3586 81° East 416 479 37,000  Level Cleveland Center
Sat 09:38:24 PM 41.9739 -83.2031 80° East 427 491 37,000  Level Cleveland Center
Sat 09:39:24 PM 41.9894 -83.0556 82° East 427 491 37,000  Level Cleveland Center
Sat 09:40:24 PM 42.0094 -82.8969 80° East 427 491 37,000  Level Cleveland Center
Sat 09:41:24 PM 42.0292 -82.7411 80° East 427 491 37,000  Level Cleveland Center
Sat 09:42:24 PM 42.0467 -82.5825 81° East 427 491 37,000  Level Cleveland Center
Sat 09:43:24 PM 42.0661 -82.4236 81° East 427 491 37,000  Level Cleveland Center
Sat 09:44:24 PM 42.0875 -82.2450 81° East 432 497 37,000  Level Cleveland Center
Sat 09:45:24 PM 42.1042 -82.1028 81° East 432 497 37,000  Level Cleveland Center
Sat 09:46:24 PM 42.1228 -81.9408 81° East 427 491 37,000  Level Cleveland Center
Sat 09:47:24 PM 42.1414 -81.7817 81° East 427 491 37,000  Level Cleveland Center
Sat 09:48:24 PM 42.1594 -81.6194 81° East 427 491 37,000  Level Cleveland Center
Sat 09:49:24 PM 42.1797 -81.4433 81° East 427 491 37,000  Level Cleveland Center
Sat 09:50:24 PM 42.1956 -81.2839 82° East 427 491 37,000  Level Cleveland Center
Sat 09:51:24 PM 42.2131 -81.1186 82° East 433 498 37,000  Level Cleveland Center
Sat 09:52:24 PM 42.2325 -80.9617 80° East 428 493 37,000  Level Cleveland Center
Sat 09:53:24 PM 42.2453 -80.7992 84° East 428 493 37,000  Level Cleveland Center
Sat 09:54:24 PM 42.2622 -80.6364 82° East 428 493 37,000  Level Cleveland Center
Sat 09:55:24 PM 42.2831 -80.4736 80° East 433 498 37,000  Level Cleveland Center
Sat 09:56:24 PM 42.2953 -80.3081 84° East 439 505 37,000  Level Cleveland Center
Sat 09:57:24 PM 42.3114 -80.1619 81° East 445 512 37,000  Level Cleveland Center
Sat 09:58:24 PM 42.3253 -79.9961 83° East 445 512 37,000  Level Cleveland Center
Sat 09:59:24 PM 42.3411 -79.8358 82° East 445 512 37,000  Level Cleveland Center
Sat 10:00:24 PM 42.3567 -79.6700 83° East 445 512 37,000  Level Cleveland Center
Sat 10:01:24 PM 42.3739 -79.5039 82° East 445 512 37,000  Level Cleveland Center
Sat 10:02:24 PM 42.3889 -79.3378 83° East 445 512 37,000  Level Cleveland Center
Sat 10:03:24 PM 42.4017 -79.1744 84° East 445 512 37,000  Level Cleveland Center
Sat 10:04:24 PM 42.4183 -79.0081 82° East 445 512 37,000  Level Cleveland Center
Sat 10:05:24 PM 42.4325 -78.8447 83° East 445 512 37,000  Level Cleveland Center
Sat 10:06:24 PM 42.4467 -78.6783 83° East 445 512 37,000  Level Cleveland Center
Sat 10:07:24 PM 42.4603 -78.5117 84° East 445 512 37,000  Level Cleveland Center
Sat 10:08:24 PM 42.4719 -78.3508 84° East 445 512 37,000  Level Cleveland Center
Sat 10:09:24 PM 42.4872 -78.1814 83° East 445 512 37,000  Level Cleveland Center
Sat 10:10:24 PM 42.4983 -78.0178 85° East 445 512 37,000  Level Cleveland Center
Sat 10:11:24 PM 42.5092 -77.8567 85° East 445 512 37,000  Level Cleveland Center
Sat 10:12:24 PM 42.5261 -77.6953 82° East 440 506 37,000  Level Cleveland Center
Sat 10:13:24 PM 42.5344 -77.5314 86° East 440 506 37,000  Level Cleveland Center
Sat 10:14:24 PM 42.5467 -77.3644 84° East 440 506 37,000  Level Cleveland Center
Sat 10:16:08 PM 42.5681 -77.0869 84° East 446 513 37,000  Level Boston Center
Sat 10:17:08 PM 42.5786 -76.9242 85° East 441 507 37,000  Level Boston Center
Sat 10:18:08 PM 42.5892 -76.7583 85° East 441 507 37,000  Level Boston Center
Sat 10:19:08 PM 42.6017 -76.5956 84° East 441 507 37,000  Level Boston Center
Sat 10:20:08 PM 42.6117 -76.4297 85° East 441 507 37,000  Level Boston Center
Sat 10:21:08 PM 42.6217 -76.2639 85° East 441 507 37,000  Level Boston Center
Sat 10:22:08 PM 42.6333 -76.0981 84° East 441 507 37,000  Level Boston Center
Sat 10:23:08 PM 42.6425 -75.9347 86° East 441 507 37,000  Level Boston Center
Sat 10:24:08 PM 42.6517 -75.7714 86° East 441 507 37,000  Level Boston Center
Sat 10:25:08 PM 42.6606 -75.6053 86° East 441 507 37,000  Level Boston Center
Sat 10:26:08 PM 42.6692 -75.4419 86° East 441 507 37,000  Level Boston Center
Sat 10:27:08 PM 42.6778 -75.2728 86° East 441 507 37,000 -800 Level Boston Center
Sat 10:28:08 PM 42.6858 -75.1122 86° East 441 507 35,400 -1,800 Descending Boston Center
Sat 10:29:08 PM 42.6958 -74.9489 85° East 436 502 33,400 -2,000 Descending Boston Center
Sat 10:30:08 PM 42.7033 -74.7936 86° East 426 490 31,400 -1,773 Descending Boston Center
Sat 10:31:20 PM 42.7106 -74.6414 86° East 411 473 29,500 -1,091 Descending Boston Center
Sat 10:32:20 PM 42.7178 -74.4692 87° East 391 450 29,000 -250 Descending Boston Center
Sat 10:33:20 PM 42.7244 -74.3225 86° East 385 443 29,000  Level Boston Center
Sat 10:34:20 PM 42.7308 -74.1814 86° East 385 443 29,000  Level Boston Center
Sat 10:35:20 PM 42.7372 -74.0372 86° East 380 437 29,000  Level Boston Center
Sat 10:36:20 PM 42.7433 -73.8961 87° East 380 437 29,000  Level Boston Center
Sat 10:37:20 PM 42.7469 -73.7575 88° East 375 432 29,000  Level Boston Center
Sat 10:38:20 PM 42.7572 -73.5994 85° East 375 432 29,000  Level Boston Center
Sat 10:39:20 PM 42.7606 -73.4581 88° East 375 432 29,000 -700 Level Boston Center
Sat 10:40:20 PM 42.7658 -73.3197 87° East 369 425 27,600 -1,650 Descending Boston Center
Sat 10:41:20 PM 42.7711 -73.1839 87° East 364 419 25,700 -1,650 Descending Boston Center
Sat 10:42:20 PM 42.7739 -73.0764 88° East 364 419 24,300 -1,650 Descending Boston Center
Sat 10:43:20 PM 42.7786 -72.9125 88° East 355 409 22,400 -1,750 Descending Boston Center
Sat 10:44:20 PM 42.7811 -72.7967 88° East 337 388 20,800 -1,600 Descending Boston Center
Sat 10:45:20 PM 42.7836 -72.6664 88° East 329 379 19,200 -1,500 Descending Boston Center
Sat 10:46:20 PM 42.7900 -72.5703 85° East 315 362 17,800 -1,400 Descending Boston Center
Sat 10:47:20 PM 42.7922 -72.4542 88° East 308 354 16,400 -1,550 Descending Boston Center
Sat 10:48:20 PM 42.7942 -72.3383 89° East 308 354 14,700 -1,700 Descending Boston Center
Sat 10:49:20 PM 42.7983 -72.2250 87° East 303 349 13,000 -1,700 Descending Boston Center
Sat 10:50:20 PM 42.8083 -72.1061 83° East 298 343 11,300 -1,650 Descending Boston Center
Sat 10:51:20 PM 42.8183 -71.9958 83° East 291 335 9,700 -1,400 Descending Boston Center
Sat 10:52:20 PM 42.8139 -71.8967 93° East 278 320 8,500 -1,600 Descending Boston Center
Sat 10:53:20 PM 42.8028 -71.7978 99° East 263 303 6,500 -1,800 Descending Boston Center
Sat 10:54:20 PM 42.8128 -71.7069 81° East 248 285 4,900 -1,250 Descending Boston Center
Sat 10:55:20 PM 42.8372 -71.6247 68° East 235 270 4,000 -1,300 Descending Boston Center
Sat 10:56:20 PM 42.8575 -71.5508 69° East 211 243 2,300 -1,300 Descending Boston Center
Sat 10:57:20 PM 42.8864 -71.5050 49° Northeast 172 198 1,400 -800 Descending Boston Center
Sat 10:58:20 PM 42.9153 -71.4650 45° Northeast 148 170 700 13,800 Descending Boston Center
Sat 10:59:20 PM 42.9400 -71.4333 43° Northeast 138 159 29,000 14,150 Climbing Boston Center
Sat 11:00:20 PM 42.9667 -71.3958 46° Northeast 138 159 29,000  Level Boston Center
Sat 11:01:20 PM 42.9914 -71.3614 46° Northeast 138 159 29,000  Level Boston Center
Sat 11:02:20 PM 43.0181 -71.3242 46° Northeast 138 159 29,000  Level Boston Center
Sat 11:03:20 PM 43.0283 -71.3097 46° Northeast 138 159 29,000  Level Boston Center
Sat 11:04:20 PM 43.0283 -71.3097 334° Northwest 138 159 29,000  Level Boston Center
Sat 11:06:00 PM 42.9328 -71.4358 316° Northwest  Level Estimated
Sat 11:13:00 PM 42.9328 -71.4358 316° Northwest  Level Estimated
Sat 11:14:00 PM 42.9328 -71.4358 316° Northwest  Level Estimated
Sat 11:15:00 PM 42.9328 -71.4358 316° Northwest  Level Estimated
Sat 11:16:00 PM 42.9328 -71.4358 316° Northwest  Level Estimated
Sat 11:17:00 PM 42.9328 -71.4358 316° Northwest  Level Estimated

Login

Don't have an account? Register now (free) for customized features, flight alerts, and more!